sensor_id;sensor_type;location;lat;lon;timestamp;P1;durP1;ratioP1;P2;durP2;ratioP2
53271;SDS011;39160;48.580;7.756;2023-06-19T00:01:18;6.75;;;5.03;;
53271;SDS011;39160;48.580;7.756;2023-06-19T00:06:08;7.43;;;5.13;;
53271;SDS011;39160;48.580;7.756;2023-06-19T00:10:59;6.50;;;4.60;;
53271;SDS011;39160;48.580;7.756;2023-06-19T00:15:50;5.40;;;4.13;;
53271;SDS011;39160;48.580;7.756;2023-06-19T00:20:41;4.35;;;3.83;;
53271;SDS011;39160;48.580;7.756;2023-06-19T00:25:35;7.95;;;4.57;;
53271;SDS011;39160;48.580;7.756;2023-06-19T00:30:25;5.40;;;3.50;;
53271;SDS011;39160;48.580;7.756;2023-06-19T00:35:16;4.72;;;3.83;;
53271;SDS011;39160;48.580;7.756;2023-06-19T00:40:12;3.80;;;3.00;;
53271;SDS011;39160;48.580;7.756;2023-06-19T00:45:11;6.00;;;3.25;;
53271;SDS011;39160;48.580;7.756;2023-06-19T00:50:02;6.50;;;3.63;;
53271;SDS011;39160;48.580;7.756;2023-06-19T00:54:52;5.00;;;3.20;;
53271;SDS011;39160;48.580;7.756;2023-06-19T00:59:43;3.97;;;3.53;;
53271;SDS011;39160;48.580;7.756;2023-06-19T01:04:34;5.60;;;3.58;;
53271;SDS011;39160;48.580;7.756;2023-06-19T01:09:29;5.95;;;3.83;;
53271;SDS011;39160;48.580;7.756;2023-06-19T01:14:25;4.28;;;3.35;;
53271;SDS011;39160;48.580;7.756;2023-06-19T01:19:21;4.93;;;3.55;;
53271;SDS011;39160;48.580;7.756;2023-06-19T01:24:12;4.45;;;4.03;;
53271;SDS011;39160;48.580;7.756;2023-06-19T01:29:03;7.60;;;3.97;;
53271;SDS011;39160;48.580;7.756;2023-06-19T01:33:54;6.68;;;4.72;;
53271;SDS011;39160;48.580;7.756;2023-06-19T01:38:46;6.10;;;4.13;;
53271;SDS011;39160;48.580;7.756;2023-06-19T01:43:38;5.65;;;3.80;;
53271;SDS011;39160;48.580;7.756;2023-06-19T01:48:29;5.10;;;3.80;;
53271;SDS011;39160;48.580;7.756;2023-06-19T01:53:20;5.10;;;3.33;;
53271;SDS011;39160;48.580;7.756;2023-06-19T01:58:11;4.05;;;3.13;;
53271;SDS011;39160;48.580;7.756;2023-06-19T02:03:01;4.60;;;3.53;;
53271;SDS011;39160;48.580;7.756;2023-06-19T02:07:52;4.57;;;3.17;;
53271;SDS011;39160;48.580;7.756;2023-06-19T02:12:43;6.00;;;3.88;;
53271;SDS011;39160;48.580;7.756;2023-06-19T02:17:33;4.00;;;3.17;;
53271;SDS011;39160;48.580;7.756;2023-06-19T02:22:24;4.75;;;3.42;;
53271;SDS011;39160;48.580;7.756;2023-06-19T02:27:15;4.40;;;3.20;;
53271;SDS011;39160;48.580;7.756;2023-06-19T02:32:06;5.20;;;2.72;;
53271;SDS011;39160;48.580;7.756;2023-06-19T02:36:56;4.65;;;2.90;;
53271;SDS011;39160;48.580;7.756;2023-06-19T02:41:47;3.60;;;2.40;;
53271;SDS011;39160;48.580;7.756;2023-06-19T02:46:38;5.10;;;2.63;;
53271;SDS011;39160;48.580;7.756;2023-06-19T02:51:28;3.65;;;2.72;;
53271;SDS011;39160;48.580;7.756;2023-06-19T02:56:19;4.45;;;2.25;;
53271;SDS011;39160;48.580;7.756;2023-06-19T03:01:10;4.60;;;3.10;;
53271;SDS011;39160;48.580;7.756;2023-06-19T03:06:00;3.22;;;2.40;;
53271;SDS011;39160;48.580;7.756;2023-06-19T03:10:51;2.92;;;2.33;;
53271;SDS011;39160;48.580;7.756;2023-06-19T03:15:41;2.83;;;1.92;;
53271;SDS011;39160;48.580;7.756;2023-06-19T03:20:32;3.25;;;2.33;;
53271;SDS011;39160;48.580;7.756;2023-06-19T03:25:23;3.25;;;2.42;;
53271;SDS011;39160;48.580;7.756;2023-06-19T03:30:13;2.90;;;2.28;;
53271;SDS011;39160;48.580;7.756;2023-06-19T03:35:04;4.10;;;2.53;;
53271;SDS011;39160;48.580;7.756;2023-06-19T03:39:55;3.85;;;2.80;;
53271;SDS011;39160;48.580;7.756;2023-06-19T03:44:46;2.83;;;2.03;;
53271;SDS011;39160;48.580;7.756;2023-06-19T03:49:36;3.25;;;2.33;;
53271;SDS011;39160;48.580;7.756;2023-06-19T03:54:27;3.13;;;2.15;;
53271;SDS011;39160;48.580;7.756;2023-06-19T03:59:17;2.92;;;2.25;;
53271;SDS011;39160;48.580;7.756;2023-06-19T04:04:08;5.55;;;2.67;;
53271;SDS011;39160;48.580;7.756;2023-06-19T04:08:59;3.70;;;2.72;;
53271;SDS011;39160;48.580;7.756;2023-06-19T04:13:49;3.80;;;2.40;;
53271;SDS011;39160;48.580;7.756;2023-06-19T04:18:40;5.10;;;2.75;;
53271;SDS011;39160;48.580;7.756;2023-06-19T04:23:31;4.18;;;2.72;;
53271;SDS011;39160;48.580;7.756;2023-06-19T04:28:21;3.88;;;2.40;;
53271;SDS011;39160;48.580;7.756;2023-06-19T04:33:12;4.40;;;3.10;;
53271;SDS011;39160;48.580;7.756;2023-06-19T04:38:03;3.30;;;2.25;;
53271;SDS011;39160;48.580;7.756;2023-06-19T04:42:53;3.60;;;2.83;;
53271;SDS011;39160;48.580;7.756;2023-06-19T04:47:44;3.58;;;2.88;;
53271;SDS011;39160;48.580;7.756;2023-06-19T04:52:34;4.43;;;3.13;;
53271;SDS011;39160;48.580;7.756;2023-06-19T04:57:25;3.10;;;2.80;;
53271;SDS011;39160;48.580;7.756;2023-06-19T05:02:16;3.45;;;2.67;;
53271;SDS011;39160;48.580;7.756;2023-06-19T05:07:06;5.18;;;2.90;;
53271;SDS011;39160;48.580;7.756;2023-06-19T05:11:57;3.85;;;2.88;;
53271;SDS011;39160;48.580;7.756;2023-06-19T05:16:47;4.47;;;2.65;;
53271;SDS011;39160;48.580;7.756;2023-06-19T05:21:38;4.43;;;3.28;;
53271;SDS011;39160;48.580;7.756;2023-06-19T05:26:29;5.78;;;3.47;;
53271;SDS011;39160;48.580;7.756;2023-06-19T05:31:19;4.32;;;2.97;;
53271;SDS011;39160;48.580;7.756;2023-06-19T05:36:10;3.60;;;2.33;;
53271;SDS011;39160;48.580;7.756;2023-06-19T05:41:02;3.97;;;3.10;;
53271;SDS011;39160;48.580;7.756;2023-06-19T05:45:53;5.13;;;2.25;;
53271;SDS011;39160;48.580;7.756;2023-06-19T05:50:45;4.20;;;2.85;;
53271;SDS011;39160;48.580;7.756;2023-06-19T05:55:36;3.80;;;2.40;;
53271;SDS011;39160;48.580;7.756;2023-06-19T06:00:27;4.80;;;3.15;;
53271;SDS011;39160;48.580;7.756;2023-06-19T06:05:18;4.18;;;2.55;;
53271;SDS011;39160;48.580;7.756;2023-06-19T06:10:10;4.10;;;2.80;;
53271;SDS011;39160;48.580;7.756;2023-06-19T06:15:01;4.13;;;3.10;;
53271;SDS011;39160;48.580;7.756;2023-06-19T06:19:52;3.30;;;2.53;;
53271;SDS011;39160;48.580;7.756;2023-06-19T06:24:43;7.38;;;2.90;;
53271;SDS011;39160;48.580;7.756;2023-06-19T06:29:34;4.30;;;2.92;;
53271;SDS011;39160;48.580;7.756;2023-06-19T06:34:26;4.35;;;3.28;;
53271;SDS011;39160;48.580;7.756;2023-06-19T06:39:17;4.10;;;2.90;;
53271;SDS011;39160;48.580;7.756;2023-06-19T06:44:07;4.25;;;2.70;;
53271;SDS011;39160;48.580;7.756;2023-06-19T06:48:58;4.47;;;2.92;;
53271;SDS011;39160;48.580;7.756;2023-06-19T06:53:49;4.30;;;2.83;;
53271;SDS011;39160;48.580;7.756;2023-06-19T06:58:40;3.42;;;2.58;;
53271;SDS011;39160;48.580;7.756;2023-06-19T07:03:31;5.78;;;2.97;;
53271;SDS011;39160;48.580;7.756;2023-06-19T07:08:22;3.88;;;3.20;;
53271;SDS011;39160;48.580;7.756;2023-06-19T07:13:13;3.95;;;3.05;;
53271;SDS011;39160;48.580;7.756;2023-06-19T07:18:04;4.57;;;3.15;;
53271;SDS011;39160;48.580;7.756;2023-06-19T07:22:54;3.80;;;2.53;;
53271;SDS011;39160;48.580;7.756;2023-06-19T07:27:45;3.83;;;2.40;;
53271;SDS011;39160;48.580;7.756;2023-06-19T07:32:36;5.35;;;2.88;;
53271;SDS011;39160;48.580;7.756;2023-06-19T07:37:27;4.55;;;2.40;;
53271;SDS011;39160;48.580;7.756;2023-06-19T07:42:18;4.55;;;2.95;;
53271;SDS011;39160;48.580;7.756;2023-06-19T07:47:10;5.22;;;3.25;;
53271;SDS011;39160;48.580;7.756;2023-06-19T07:52:01;6.25;;;2.70;;
53271;SDS011;39160;48.580;7.756;2023-06-19T07:56:52;5.88;;;2.80;;
53271;SDS011;39160;48.580;7.756;2023-06-19T08:01:43;5.07;;;2.92;;
53271;SDS011;39160;48.580;7.756;2023-06-19T08:06:34;4.28;;;2.50;;
53271;SDS011;39160;48.580;7.756;2023-06-19T08:11:24;4.65;;;3.60;;
53271;SDS011;39160;48.580;7.756;2023-06-19T08:16:15;4.03;;;2.90;;
53271;SDS011;39160;48.580;7.756;2023-06-19T08:21:06;3.50;;;2.83;;
53271;SDS011;39160;48.580;7.756;2023-06-19T08:25:56;3.85;;;2.92;;
53271;SDS011;39160;48.580;7.756;2023-06-19T08:30:47;4.80;;;2.88;;
53271;SDS011;39160;48.580;7.756;2023-06-19T08:35:38;6.18;;;2.90;;
53271;SDS011;39160;48.580;7.756;2023-06-19T08:40:28;3.03;;;2.72;;
53271;SDS011;39160;48.580;7.756;2023-06-19T08:45:19;3.05;;;2.35;;
53271;SDS011;39160;48.580;7.756;2023-06-19T08:50:10;3.78;;;3.08;;
53271;SDS011;39160;48.580;7.756;2023-06-19T08:55:01;3.58;;;2.75;;
53271;SDS011;39160;48.580;7.756;2023-06-19T08:59:52;3.88;;;2.50;;
53271;SDS011;39160;48.580;7.756;2023-06-19T09:04:42;5.85;;;2.72;;
53271;SDS011;39160;48.580;7.756;2023-06-19T09:09:33;3.50;;;2.80;;
53271;SDS011;39160;48.580;7.756;2023-06-19T09:14:27;4.57;;;2.92;;
53271;SDS011;39160;48.580;7.756;2023-06-19T09:24:19;3.58;;;2.63;;
53271;SDS011;39160;48.580;7.756;2023-06-19T09:29:10;4.53;;;3.20;;
53271;SDS011;39160;48.580;7.756;2023-06-19T09:34:09;4.45;;;3.30;;
53271;SDS011;39160;48.580;7.756;2023-06-19T09:38:59;3.85;;;2.53;;
53271;SDS011;39160;48.580;7.756;2023-06-19T09:43:53;3.17;;;2.67;;
53271;SDS011;39160;48.580;7.756;2023-06-19T09:48:49;2.90;;;2.60;;
53271;SDS011;39160;48.580;7.756;2023-06-19T09:53:45;5.13;;;2.97;;
53271;SDS011;39160;48.580;7.756;2023-06-19T09:58:36;4.45;;;2.90;;
53271;SDS011;39160;48.580;7.756;2023-06-19T10:03:31;4.78;;;3.03;;
53271;SDS011;39160;48.580;7.756;2023-06-19T10:08:30;7.38;;;4.28;;
53271;SDS011;39160;48.580;7.756;2023-06-19T10:13:21;4.57;;;3.28;;
53271;SDS011;39160;48.580;7.756;2023-06-19T10:18:20;5.03;;;3.53;;
53271;SDS011;39160;48.580;7.756;2023-06-19T10:28:17;5.38;;;3.92;;
53271;SDS011;39160;48.580;7.756;2023-06-19T10:33:14;7.15;;;3.67;;
53271;SDS011;39160;48.580;7.756;2023-06-19T10:38:04;5.00;;;4.40;;
53271;SDS011;39160;48.580;7.756;2023-06-19T10:42:55;7.18;;;4.10;;
53271;SDS011;39160;48.580;7.756;2023-06-19T10:47:46;6.75;;;3.70;;
53271;SDS011;39160;48.580;7.756;2023-06-19T10:52:39;8.77;;;4.07;;
53271;SDS011;39160;48.580;7.756;2023-06-19T10:57:31;5.10;;;3.58;;
53271;SDS011;39160;48.580;7.756;2023-06-19T11:02:22;4.13;;;3.28;;
53271;SDS011;39160;48.580;7.756;2023-06-19T11:07:13;6.38;;;3.72;;
53271;SDS011;39160;48.580;7.756;2023-06-19T11:12:04;3.92;;;3.25;;
53271;SDS011;39160;48.580;7.756;2023-06-19T11:16:57;5.43;;;4.38;;
53271;SDS011;39160;48.580;7.756;2023-06-19T11:21:51;8.23;;;4.90;;
53271;SDS011;39160;48.580;7.756;2023-06-19T11:26:43;5.18;;;3.55;;
53271;SDS011;39160;48.580;7.756;2023-06-19T11:31:39;4.78;;;3.63;;
53271;SDS011;39160;48.580;7.756;2023-06-19T11:36:30;6.53;;;3.78;;
53271;SDS011;39160;48.580;7.756;2023-06-19T11:41:24;5.60;;;3.05;;
53271;SDS011;39160;48.580;7.756;2023-06-19T11:46:17;4.32;;;3.58;;
53271;SDS011;39160;48.580;7.756;2023-06-19T11:51:09;3.85;;;3.45;;
53271;SDS011;39160;48.580;7.756;2023-06-19T11:55:59;3.63;;;2.90;;
53271;SDS011;39160;48.580;7.756;2023-06-19T12:00:50;5.90;;;3.28;;
53271;SDS011;39160;48.580;7.756;2023-06-19T12:05:41;3.45;;;3.05;;
53271;SDS011;39160;48.580;7.756;2023-06-19T12:10:31;5.97;;;3.50;;
53271;SDS011;39160;48.580;7.756;2023-06-19T12:15:24;4.13;;;2.55;;
53271;SDS011;39160;48.580;7.756;2023-06-19T12:20:14;5.50;;;3.20;;
53271;SDS011;39160;48.580;7.756;2023-06-19T12:25:05;3.60;;;2.63;;
53271;SDS011;39160;48.580;7.756;2023-06-19T12:29:56;3.28;;;2.97;;
53271;SDS011;39160;48.580;7.756;2023-06-19T12:34:47;4.13;;;3.20;;
53271;SDS011;39160;48.580;7.756;2023-06-19T12:39:37;5.05;;;2.97;;
53271;SDS011;39160;48.580;7.756;2023-06-19T12:44:28;3.90;;;2.72;;
53271;SDS011;39160;48.580;7.756;2023-06-19T12:49:19;2.60;;;2.40;;
53271;SDS011;39160;48.580;7.756;2023-06-19T12:54:09;2.80;;;2.50;;
53271;SDS011;39160;48.580;7.756;2023-06-19T12:59:00;2.75;;;2.40;;
53271;SDS011;39160;48.580;7.756;2023-06-19T13:03:51;2.78;;;2.50;;
53271;SDS011;39160;48.580;7.756;2023-06-19T13:08:41;4.27;;;2.70;;
53271;SDS011;39160;48.580;7.756;2023-06-19T13:13:32;3.38;;;3.00;;
53271;SDS011;39160;48.580;7.756;2023-06-19T13:18:23;2.40;;;2.10;;
53271;SDS011;39160;48.580;7.756;2023-06-19T13:23:14;2.60;;;2.40;;
53271;SDS011;39160;48.580;7.756;2023-06-19T13:28:05;2.83;;;2.15;;
53271;SDS011;39160;48.580;7.756;2023-06-19T13:32:55;3.53;;;2.37;;
53271;SDS011;39160;48.580;7.756;2023-06-19T13:37:46;4.30;;;2.95;;
53271;SDS011;39160;48.580;7.756;2023-06-19T13:42:37;3.40;;;2.90;;
53271;SDS011;39160;48.580;7.756;2023-06-19T13:47:28;5.40;;;3.63;;
53271;SDS011;39160;48.580;7.756;2023-06-19T13:52:19;4.80;;;3.38;;
53271;SDS011;39160;48.580;7.756;2023-06-19T13:57:10;4.32;;;3.10;;
53271;SDS011;39160;48.580;7.756;2023-06-19T14:02:01;3.40;;;3.08;;
53271;SDS011;39160;48.580;7.756;2023-06-19T14:06:51;3.45;;;3.15;;
53271;SDS011;39160;48.580;7.756;2023-06-19T14:11:42;4.15;;;3.40;;
53271;SDS011;39160;48.580;7.756;2023-06-19T14:16:34;3.58;;;3.22;;
53271;SDS011;39160;48.580;7.756;2023-06-19T14:21:24;4.30;;;3.00;;
53271;SDS011;39160;48.580;7.756;2023-06-19T14:26:15;4.93;;;2.73;;
53271;SDS011;39160;48.580;7.756;2023-06-19T14:31:06;3.20;;;3.00;;
53271;SDS011;39160;48.580;7.756;2023-06-19T14:40:47;4.00;;;3.58;;
53271;SDS011;39160;48.580;7.756;2023-06-19T14:45:39;4.55;;;3.17;;
53271;SDS011;39160;48.580;7.756;2023-06-19T14:50:31;3.95;;;3.38;;
53271;SDS011;39160;48.580;7.756;2023-06-19T14:55:21;8.50;;;3.50;;
53271;SDS011;39160;48.580;7.756;2023-06-19T15:00:12;3.95;;;3.15;;
53271;SDS011;39160;48.580;7.756;2023-06-19T15:05:04;5.83;;;3.47;;
53271;SDS011;39160;48.580;7.756;2023-06-19T15:09:55;4.55;;;3.47;;
53271;SDS011;39160;48.580;7.756;2023-06-19T15:14:46;4.78;;;4.07;;
53271;SDS011;39160;48.580;7.756;2023-06-19T15:19:36;6.35;;;3.58;;
53271;SDS011;39160;48.580;7.756;2023-06-19T15:24:27;4.15;;;3.55;;
53271;SDS011;39160;48.580;7.756;2023-06-19T15:29:18;4.32;;;3.60;;
53271;SDS011;39160;48.580;7.756;2023-06-19T15:34:08;4.97;;;3.72;;
53271;SDS011;39160;48.580;7.756;2023-06-19T15:38:59;3.40;;;3.10;;
53271;SDS011;39160;48.580;7.756;2023-06-19T15:43:50;4.75;;;3.30;;
53271;SDS011;39160;48.580;7.756;2023-06-19T15:48:40;4.15;;;3.75;;
53271;SDS011;39160;48.580;7.756;2023-06-19T15:53:32;7.63;;;3.40;;
53271;SDS011;39160;48.580;7.756;2023-06-19T15:58:22;3.70;;;3.40;;
53271;SDS011;39160;48.580;7.756;2023-06-19T16:03:14;3.97;;;3.67;;
53271;SDS011;39160;48.580;7.756;2023-06-19T16:08:04;3.03;;;2.65;;
53271;SDS011;39160;48.580;7.756;2023-06-19T16:12:55;5.28;;;2.97;;
53271;SDS011;39160;48.580;7.756;2023-06-19T16:17:45;3.58;;;3.28;;
53271;SDS011;39160;48.580;7.756;2023-06-19T16:22:37;4.05;;;3.58;;
53271;SDS011;39160;48.580;7.756;2023-06-19T16:27:28;5.00;;;4.07;;
53271;SDS011;39160;48.580;7.756;2023-06-19T16:32:19;3.93;;;3.57;;
53271;SDS011;39160;48.580;7.756;2023-06-19T16:37:09;5.28;;;3.10;;
53271;SDS011;39160;48.580;7.756;2023-06-19T16:42:00;7.63;;;3.65;;
53271;SDS011;39160;48.580;7.756;2023-06-19T16:46:51;4.50;;;3.90;;
53271;SDS011;39160;48.580;7.756;2023-06-19T16:51:41;3.75;;;3.28;;
53271;SDS011;39160;48.580;7.756;2023-06-19T16:56:32;7.15;;;4.95;;
53271;SDS011;39160;48.580;7.756;2023-06-19T17:01:22;3.22;;;2.92;;
53271;SDS011;39160;48.580;7.756;2023-06-19T17:06:13;4.07;;;3.55;;
53271;SDS011;39160;48.580;7.756;2023-06-19T17:11:04;3.10;;;2.78;;
53271;SDS011;39160;48.580;7.756;2023-06-19T17:15:55;3.55;;;3.25;;
53271;SDS011;39160;48.580;7.756;2023-06-19T17:20:46;3.50;;;3.20;;
53271;SDS011;39160;48.580;7.756;2023-06-19T17:25:36;3.80;;;3.40;;
53271;SDS011;39160;48.580;7.756;2023-06-19T17:30:27;3.60;;;3.05;;
53271;SDS011;39160;48.580;7.756;2023-06-19T17:35:17;5.23;;;3.97;;
53271;SDS011;39160;48.580;7.756;2023-06-19T17:40:08;4.15;;;3.60;;
53271;SDS011;39160;48.580;7.756;2023-06-19T17:45:03;5.68;;;3.28;;
53271;SDS011;39160;48.580;7.756;2023-06-19T17:49:54;5.35;;;3.83;;
53271;SDS011;39160;48.580;7.756;2023-06-19T17:54:44;3.90;;;3.30;;
53271;SDS011;39160;48.580;7.756;2023-06-19T17:59:39;6.45;;;3.83;;
53271;SDS011;39160;48.580;7.756;2023-06-19T18:04:29;5.43;;;4.60;;
53271;SDS011;39160;48.580;7.756;2023-06-19T18:09:20;5.20;;;4.70;;
53271;SDS011;39160;48.580;7.756;2023-06-19T18:14:11;3.85;;;3.15;;
53271;SDS011;39160;48.580;7.756;2023-06-19T18:19:01;4.88;;;3.53;;
53271;SDS011;39160;48.580;7.756;2023-06-19T18:23:52;4.88;;;3.95;;
53271;SDS011;39160;48.580;7.756;2023-06-19T18:28:43;5.22;;;4.53;;
53271;SDS011;39160;48.580;7.756;2023-06-19T18:33:33;7.95;;;4.88;;
53271;SDS011;39160;48.580;7.756;2023-06-19T18:38:24;3.97;;;3.58;;
53271;SDS011;39160;48.580;7.756;2023-06-19T18:43:14;4.78;;;3.80;;
53271;SDS011;39160;48.580;7.756;2023-06-19T18:48:05;5.28;;;3.53;;
53271;SDS011;39160;48.580;7.756;2023-06-19T18:52:56;5.72;;;3.85;;
53271;SDS011;39160;48.580;7.756;2023-06-19T18:57:47;4.57;;;3.47;;
53271;SDS011;39160;48.580;7.756;2023-06-19T19:02:40;4.77;;;3.97;;
53271;SDS011;39160;48.580;7.756;2023-06-19T19:07:31;4.93;;;3.25;;
53271;SDS011;39160;48.580;7.756;2023-06-19T19:12:22;7.20;;;3.58;;
53271;SDS011;39160;48.580;7.756;2023-06-19T19:17:12;4.63;;;3.60;;
53271;SDS011;39160;48.580;7.756;2023-06-19T19:22:03;6.10;;;3.60;;
53271;SDS011;39160;48.580;7.756;2023-06-19T19:26:54;5.88;;;3.75;;
53271;SDS011;39160;48.580;7.756;2023-06-19T19:31:45;7.32;;;4.43;;
53271;SDS011;39160;48.580;7.756;2023-06-19T19:36:35;4.07;;;3.20;;
53271;SDS011;39160;48.580;7.756;2023-06-19T19:41:26;4.47;;;4.07;;
53271;SDS011;39160;48.580;7.756;2023-06-19T19:46:17;5.43;;;3.60;;
53271;SDS011;39160;48.580;7.756;2023-06-19T19:51:07;5.32;;;3.67;;
53271;SDS011;39160;48.580;7.756;2023-06-19T19:55:59;6.93;;;4.70;;
53271;SDS011;39160;48.580;7.756;2023-06-19T20:00:50;5.70;;;3.28;;
53271;SDS011;39160;48.580;7.756;2023-06-19T20:05:40;6.03;;;3.90;;
53271;SDS011;39160;48.580;7.756;2023-06-19T20:10:31;4.57;;;3.60;;
53271;SDS011;39160;48.580;7.756;2023-06-19T20:15:22;4.25;;;3.47;;
53271;SDS011;39160;48.580;7.756;2023-06-19T20:20:13;5.00;;;3.78;;
53271;SDS011;39160;48.580;7.756;2023-06-19T20:25:04;4.50;;;3.42;;
53271;SDS011;39160;48.580;7.756;2023-06-19T20:29:55;6.97;;;3.83;;
53271;SDS011;39160;48.580;7.756;2023-06-19T20:34:45;4.60;;;3.60;;
53271;SDS011;39160;48.580;7.756;2023-06-19T20:39:36;4.13;;;3.40;;
53271;SDS011;39160;48.580;7.756;2023-06-19T20:44:27;6.97;;;5.05;;
53271;SDS011;39160;48.580;7.756;2023-06-19T20:49:18;5.40;;;3.80;;
53271;SDS011;39160;48.580;7.756;2023-06-19T20:54:08;5.50;;;3.42;;
53271;SDS011;39160;48.580;7.756;2023-06-19T20:58:59;7.65;;;4.00;;
53271;SDS011;39160;48.580;7.756;2023-06-19T21:03:50;4.32;;;3.63;;
53271;SDS011;39160;48.580;7.756;2023-06-19T21:08:40;7.05;;;4.43;;
53271;SDS011;39160;48.580;7.756;2023-06-19T21:13:31;5.18;;;4.05;;
53271;SDS011;39160;48.580;7.756;2023-06-19T21:18:22;6.78;;;5.03;;
53271;SDS011;39160;48.580;7.756;2023-06-19T21:23:12;5.13;;;4.10;;
53271;SDS011;39160;48.580;7.756;2023-06-19T21:28:03;7.18;;;5.03;;
53271;SDS011;39160;48.580;7.756;2023-06-19T21:32:54;5.05;;;4.38;;
53271;SDS011;39160;48.580;7.756;2023-06-19T21:37:44;5.18;;;4.30;;
53271;SDS011;39160;48.580;7.756;2023-06-19T21:42:35;5.45;;;3.72;;
53271;SDS011;39160;48.580;7.756;2023-06-19T21:47:26;4.43;;;3.80;;
53271;SDS011;39160;48.580;7.756;2023-06-19T21:52:16;6.57;;;4.63;;
53271;SDS011;39160;48.580;7.756;2023-06-19T21:57:07;5.40;;;3.58;;
53271;SDS011;39160;48.580;7.756;2023-06-19T22:01:58;5.80;;;3.97;;
53271;SDS011;39160;48.580;7.756;2023-06-19T22:06:48;5.45;;;3.92;;
53271;SDS011;39160;48.580;7.756;2023-06-19T22:11:39;6.50;;;3.55;;
53271;SDS011;39160;48.580;7.756;2023-06-19T22:16:30;7.88;;;4.18;;
53271;SDS011;39160;48.580;7.756;2023-06-19T22:21:21;7.07;;;5.07;;
53271;SDS011;39160;48.580;7.756;2023-06-19T22:26:12;6.55;;;4.53;;
53271;SDS011;39160;48.580;7.756;2023-06-19T22:31:02;5.90;;;4.53;;
53271;SDS011;39160;48.580;7.756;2023-06-19T22:35:53;6.57;;;4.43;;
53271;SDS011;39160;48.580;7.756;2023-06-19T22:40:44;5.68;;;4.47;;
53271;SDS011;39160;48.580;7.756;2023-06-19T22:45:35;4.88;;;4.07;;
53271;SDS011;39160;48.580;7.756;2023-06-19T22:50:25;5.53;;;4.53;;
53271;SDS011;39160;48.580;7.756;2023-06-19T22:55:16;6.90;;;4.22;;
53271;SDS011;39160;48.580;7.756;2023-06-19T23:00:07;6.28;;;4.20;;
53271;SDS011;39160;48.580;7.756;2023-06-19T23:05:02;7.50;;;4.50;;
53271;SDS011;39160;48.580;7.756;2023-06-19T23:09:52;7.50;;;4.63;;
53271;SDS011;39160;48.580;7.756;2023-06-19T23:14:43;5.38;;;3.95;;
53271;SDS011;39160;48.580;7.756;2023-06-19T23:19:34;5.78;;;4.97;;
53271;SDS011;39160;48.580;7.756;2023-06-19T23:24:25;6.25;;;4.57;;
53271;SDS011;39160;48.580;7.756;2023-06-19T23:29:18;5.43;;;4.15;;
53271;SDS011;39160;48.580;7.756;2023-06-19T23:34:08;5.65;;;4.45;;
53271;SDS011;39160;48.580;7.756;2023-06-19T23:38:59;4.53;;;3.83;;
53271;SDS011;39160;48.580;7.756;2023-06-19T23:43:51;4.90;;;3.53;;
53271;SDS011;39160;48.580;7.756;2023-06-19T23:48:41;4.85;;;4.30;;
53271;SDS011;39160;48.580;7.756;2023-06-19T23:53:32;6.60;;;4.55;;
53271;SDS011;39160;48.580;7.756;2023-06-19T23:58:23;6.03;;;4.53;;
